Terminal Aerodrome Forecast
Issued by NWS Austin/San Antonio, TX

Home | Current Version | Previous Version | Text Only | Print | Product List | Glossary On
Versions: 1 2 3 4 5 6 7 8 9 10 11 12 13 14 15 16 17 18 19 20 21 22 23 24
000
FTUS44 KEWX 281900 AAA
TAFDRT
TAF AMD
KDRT 281900Z 2819/2918 13014G24KT P6SM BKN035
     FM290100 11010KT P6SM BKN035
     FM290500 11008KT P6SM BKN012
     FM290700 12007KT 5SM BR OVC008
     FM291500 35008KT P6SM OVC015=

USA.gov is the U.S. government's official web portal to all federal, state and local government web resources and services.